Map

Track Data

SID SEASON NUMBER BASIN SUBBASIN NAME ISO_TIME NATURE LAT LON WMO_WIND WMO_PRES WMO_AGENCY TRACK_TYPE DIST2LAND LANDFALL IFLAG USA_AGENCY USA_ATCF_ID USA_LAT USA_LON USA_RECORD USA_STATUS USA_WIND USA_PRES USA_SSHS USA_R34_NE USA_R34_SE USA_R34_SW USA_R34_NW USA_R50_NE USA_R50_SE USA_R50_SW USA_R50_NW USA_R64_NE USA_R64_SE USA_R64_SW USA_R64_NW USA_POCI USA_ROCI USA_RMW USA_EYE TOKYO_LAT TOKYO_LON TOKYO_GRADE TOKYO_WIND TOKYO_PRES TOKYO_R50_DIR TOKYO_R50_LONG TOKYO_R50_SHORT TOKYO_R30_DIR TOKYO_R30_LONG TOKYO_R30_SHORT TOKYO_LAND CMA_LAT CMA_LON CMA_CAT CMA_WIND CMA_PRES HKO_LAT HKO_LON HKO_CAT HKO_WIND HKO_PRES NEWDELHI_LAT NEWDELHI_LON NEWDELHI_GRADE NEWDELHI_WIND NEWDELHI_PRES NEWDELHI_CI NEWDELHI_DP NEWDELHI_POCI REUNION_LAT REUNION_LON REUNION_TYPE REUNION_WIND REUNION_PRES REUNION_TNUM REUNION_CI REUNION_RMW REUNION_R34_NE REUNION_R34_SE REUNION_R34_SW REUNION_R34_NW REUNION_R50_NE REUNION_R50_SE REUNION_R50_SW REUNION_R50_NW REUNION_R64_NE REUNION_R64_SE REUNION_R64_SW REUNION_R64_NW BOM_LAT BOM_LON BOM_TYPE BOM_WIND BOM_PRES BOM_TNUM BOM_CI BOM_RMW BOM_R34_NE BOM_R34_SE BOM_R34_SW BOM_R34_NW BOM_R50_NE BOM_R50_SE BOM_R50_SW BOM_R50_NW BOM_R64_NE BOM_R64_SE BOM_R64_SW BOM_R64_NW BOM_ROCI BOM_POCI BOM_EYE BOM_POS_METHOD BOM_PRES_METHOD NADI_LAT NADI_LON NADI_CAT NADI_WIND NADI_PRES WELLINGTON_LAT WELLINGTON_LON WELLINGTON_WIND WELLINGTON_PRES DS824_LAT DS824_LON DS824_STAGE DS824_WIND DS824_PRES TD9636_LAT TD9636_LON TD9636_STAGE TD9636_WIND TD9636_PRES TD9635_LAT TD9635_LON TD9635_WIND TD9635_PRES TD9635_ROCI NEUMANN_LAT NEUMANN_LON NEUMANN_CLASS NEUMANN_WIND NEUMANN_PRES MLC_LAT MLC_LON MLC_CLASS MLC_WIND MLC_PRES USA_GUST BOM_GUST BOM_GUST_PER REUNION_GUST REUNION_GUST_PER USA_SEAHGT USA_SEARAD_NE USA_SEARAD_SE USA_SEARAD_SW USA_SEARAD_NW STORM_SPEED STORM_DIR
1956236N17247 1956 76 EP MM NOT_NAMED 1956-08-22 12:00:00 TS 16.9000 -112.900 75 hurdat_epa main 736 710 O________OO___ hurdat_epa EP071956 16.9000 -112.900 HU 75 1 16.9000 -112.900 TC 75 16.9000 -112.900 4 8 340
1956236N17247 1956 76 EP MM NOT_NAMED 1956-08-22 15:00:00 TS 17.2603 -113.038 main 700 680 P________PP___ EP071956 17.2675 -113.030 HU 75 1 17.2675 -113.030 TC 75 17.2314 -113.068 4 8 337
1956236N17247 1956 76 EP MM NOT_NAMED 1956-08-22 18:00:00 TS 17.5900 -113.212 75 hurdat_epa main 680 661 O________OP___ hurdat_epa EP071956 17.6000 -113.200 HU 75 1 17.6000 -113.200 TC 75 17.5502 -113.259 4 7 327
1956236N17247 1956 76 EP MM NOT_NAMED 1956-08-22 21:00:00 TS 17.8667 -113.457 main 667 660 P________PP___ EP071956 17.8724 -113.448 HU 75 1 17.8724 -113.448 TC 75 17.8440 -113.495 4 8 312
1956236N17247 1956 76 EP MM NOT_NAMED 1956-08-23 00:00:00 TS 18.1000 -113.800 75 hurdat_epa main 666 664 O________OO___ hurdat_epa EP071956 18.1000 -113.800 HU 75 1 18.1000 -113.800 TC 75 18.1000 -113.800 4 9 300
1956236N17247 1956 76 EP MM NOT_NAMED 1956-08-23 03:00:00 TS 18.3084 -114.248 main 674 674 P________PP___ EP071956 18.3075 -114.263 HU 75 1 18.3075 -114.263 TC 75 18.3119 -114.191 4 10 293
1956236N17247 1956 76 EP MM NOT_NAMED 1956-08-23 06:00:00 TS 18.4998 -114.774 75 hurdat_epa main 700 700 O________OP___ hurdat_epa EP071956 18.5000 -114.800 HU 75 1 18.5000 -114.800 TC 75 18.4988 -114.672 4 11 291
1956236N17247 1956 76 EP MM NOT_NAMED 1956-08-23 09:00:00 TS 18.6849 -115.293 main 723 723 P________PP___ EP071956 18.6845 -115.305 HU 75 1 18.6845 -115.305 TC 75 18.6864 -115.242 4 11 291
1956236N17247 1956 76 EP MM NOT_NAMED 1956-08-23 12:00:00 TS 18.9000 -115.900 75 hurdat_epa main 755 755 O________OO___ hurdat_epa EP071956 18.9000 -115.900 HU 75 1 18.9000 -115.900 TC 75 18.9000 -115.900 4 14 291
1956236N17247 1956 76 EP MM NOT_NAMED 1956-08-23 15:00:00 TS 19.1741 -116.647 main 770 770 P________PP___ EP071956 19.1850 -116.655 HU 75 1 19.1850 -116.655 TC 75 19.1303 -116.612 4 16 291
1956236N17247 1956 76 EP MM NOT_NAMED 1956-08-23 18:00:00 TS 19.4788 -117.482 75 hurdat_epa main 804 804 O________OP___ hurdat_epa EP071956 19.5000 -117.500 HU 75 1 19.5000 -117.500 TC 75 19.3942 -117.411 4 17 290
1956236N17247 1956 76 EP MM NOT_NAMED 1956-08-23 21:00:00 TS 19.7457 -118.313 main 847 847 P________PP___ EP071956 19.7544 -118.321 HU 75 1 19.7544 -118.321 TC 75 19.7110 -118.279 4 17 291
1956236N17247 1956 76 EP MM NOT_NAMED 1956-08-24 00:00:00 TS 20.1000 -119.200 75 hurdat_epa main 890 890 O________OO___ hurdat_epa EP071956 20.1000 -119.200 HU 75 1 20.1000 -119.200 TC 75 20.1000 -119.200 4 20 298
1956236N17247 1956 76 EP MM NOT_NAMED 1956-08-24 03:00:00 TS 20.6716 -120.167 main 934 932 P________PP___ EP071956 20.6698 -120.177 HU 75 1 20.6698 -120.177 TC 75 20.6785 -120.128 4 22 303
1956236N17247 1956 76 EP MM NOT_NAMED 1956-08-24 06:00:00 TS 21.3021 -121.182 75 hurdat_epa main 950 948 O________OP___ hurdat_epa EP071956 21.3000 -121.200 HU 75 1 21.3000 -121.200 TC 75 21.3107 -121.109 4 22 303
1956236N17247 1956 76 EP MM NOT_NAMED 1956-08-24 09:00:00 TS 21.8828 -122.175 main 972 972 P________PP___ EP071956 21.8816 -122.185 HU 75 1 21.8816 -122.185 TC 75 21.8875 -122.137 4 21 298
1956236N17247 1956 76 EP MM NOT_NAMED 1956-08-24 12:00:00 TS 22.3000 -123.200 75 hurdat_epa main 1022 1022 O________OO___ hurdat_epa EP071956 22.3000 -123.200 HU 75 1 22.3000 -123.200 TC 75 22.3000 -123.200 4 20 286
1956236N17247 1956 76 EP MM NOT_NAMED 1956-08-24 15:00:00 TS 22.4510 -124.289 main 1100 1100 P________PP___ EP071956 22.4545 -124.286 HU 75 1 22.4545 -124.286 TC 75 22.4370 -124.304 4 20 273
1956236N17247 1956 76 EP MM NOT_NAMED 1956-08-24 18:00:00 TS 22.3995 -125.406 75 hurdat_epa main 1202 1202 O________OP___ hurdat_epa EP071956 22.4000 -125.400 HU 75 1 22.4000 -125.400 TC 75 22.3975 -125.428 4 21 264
1956236N17247 1956 76 EP MM NOT_NAMED 1956-08-24 21:00:00 TS 22.2425 -126.526 main 1310 1310 P________PP___ EP071956 22.2447 -126.523 HU 67 1 22.2447 -126.523 TC 67 22.2340 -126.537 4 21 259
1956236N17247 1956 76 EP MM NOT_NAMED 1956-08-25 00:00:00 TS 22.0000 -127.600 60 hurdat_epa main 1419 1419 O________OO___ hurdat_epa EP071956 22.0000 -127.600 TS 60 0 22.0000 -127.600 TC 60 22.0000 -127.600 4 20 256
1956236N17247 1956 76 EP MM NOT_NAMED 1956-08-25 03:00:00 TS 21.7596 -128.582 main 1521 1521 P________PP___ EP071956 21.7642 -128.580 TS 67 1 21.7642 -128.580 TC 67 21.7412 -128.594 4 18 254
1956236N17247 1956 76 EP MM NOT_NAMED 1956-08-25 06:00:00 TS 21.4939 -129.506 75 hurdat_epa main 1618 1618 O________OP___ hurdat_epa EP071956 21.5000 -129.500 HU 75 1 21.5000 -129.500 TC 75 21.4695 -129.530 4 18 252
1956236N17247 1956 76 EP MM NOT_NAMED 1956-08-25 09:00:00 TS 21.2045 -130.408 main 1716 1716 P________PP___ EP071956 21.2086 -130.403 HU 75 1 21.2086 -130.403 TC 75 21.1882 -130.426 4 18 250
1956236N17247 1956 76 EP MM NOT_NAMED 1956-08-25 12:00:00 TS 20.9000 -131.300 75 hurdat_epa main 1815 O________OO___ hurdat_epa EP071956 20.9000 -131.300 HU 75 1 20.9000 -131.300 TC 75 20.9000 -131.300 4 18 250

About IBTrACS Database

This database is a web-friendly format of International Best Track Archive for Climate Stewardship (IBTrACS), a global best track data archive curated by NOAA dating back to 1842.

Updated: 2021-12-06